sensor_id;sensor_type;location;lat;lon;timestamp;pressure;altitude;pressure_sealevel;temperature;humidity
54806;BME280;62866;55.776;37.496;2023-05-09T00:01:09;101412.00;;;3.91;60.49
54806;BME280;62866;55.776;37.496;2023-05-09T00:03:35;101413.81;;;3.91;60.94
54806;BME280;62866;55.776;37.496;2023-05-09T00:06:00;101418.16;;;3.92;61.04
54806;BME280;62866;55.776;37.496;2023-05-09T00:08:26;101418.25;;;3.90;60.84
54806;BME280;62866;55.776;37.496;2023-05-09T00:10:52;101408.72;;;3.88;61.08
54806;BME280;62866;55.776;37.496;2023-05-09T00:13:18;101417.59;;;3.87;61.53
54806;BME280;62866;55.776;37.496;2023-05-09T00:15:44;101408.41;;;3.79;61.24
54806;BME280;62866;55.776;37.496;2023-05-09T00:18:11;101419.72;;;3.81;61.24
54806;BME280;62866;55.776;37.496;2023-05-09T00:20:38;101399.28;;;3.71;60.88
54806;BME280;62866;55.776;37.496;2023-05-09T00:23:06;101409.44;;;3.77;61.68
54806;BME280;62866;55.776;37.496;2023-05-09T00:25:32;101408.19;;;3.70;60.82
54806;BME280;62866;55.776;37.496;2023-05-09T00:27:57;101422.81;;;3.75;61.24
54806;BME280;62866;55.776;37.496;2023-05-09T00:30:23;101409.97;;;3.69;61.23
54806;BME280;62866;55.776;37.496;2023-05-09T00:32:49;101417.81;;;3.71;61.67
54806;BME280;62866;55.776;37.496;2023-05-09T00:35:14;101418.16;;;3.66;62.18
54806;BME280;62866;55.776;37.496;2023-05-09T00:37:40;101426.94;;;3.67;62.66
54806;BME280;62866;55.776;37.496;2023-05-09T00:40:06;101412.44;;;3.60;62.62
54806;BME280;62866;55.776;37.496;2023-05-09T00:42:33;101421.31;;;3.59;62.14
54806;BME280;62866;55.776;37.496;2023-05-09T00:45:00;101423.81;;;3.60;62.00
54806;BME280;62866;55.776;37.496;2023-05-09T00:47:26;101401.16;;;3.43;61.68
54806;BME280;62866;55.776;37.496;2023-05-09T00:49:52;101423.19;;;3.57;62.07
54806;BME280;62866;55.776;37.496;2023-05-09T00:52:18;101386.16;;;3.31;62.04
54806;BME280;62866;55.776;37.496;2023-05-09T00:54:48;101421.19;;;3.48;61.77
54806;BME280;62866;55.776;37.496;2023-05-09T00:57:14;101419.91;;;3.40;62.06
54806;BME280;62866;55.776;37.496;2023-05-09T00:59:39;101401.25;;;3.29;62.06
54806;BME280;62866;55.776;37.496;2023-05-09T01:02:05;101421.03;;;3.36;62.23
54806;BME280;62866;55.776;37.496;2023-05-09T01:04:31;101417.97;;;3.30;62.33
54806;BME280;62866;55.776;37.496;2023-05-09T01:07:18;101428.44;;;3.31;63.16
54806;BME280;62866;55.776;37.496;2023-05-09T01:10:07;101423.56;;;3.25;62.48
54806;BME280;62866;55.776;37.496;2023-05-09T01:15:12;101417.19;;;3.15;62.81
54806;BME280;62866;55.776;37.496;2023-05-09T01:26:03;101427.97;;;3.12;63.42
54806;BME280;62866;55.776;37.496;2023-05-09T01:31:20;101413.44;;;3.05;62.68
54806;BME280;62866;55.776;37.496;2023-05-09T01:33:58;101429.66;;;3.13;63.52
54806;BME280;62866;55.776;37.496;2023-05-09T01:36:29;101429.75;;;3.12;62.97
54806;BME280;62866;55.776;37.496;2023-05-09T01:38:58;101434.84;;;3.15;63.41
54806;BME280;62866;55.776;37.496;2023-05-09T01:41:27;101423.75;;;3.10;63.33
54806;BME280;62866;55.776;37.496;2023-05-09T01:43:56;101427.00;;;3.13;63.46
54806;BME280;62866;55.776;37.496;2023-05-09T01:46:24;101428.03;;;3.11;62.50
54806;BME280;62866;55.776;37.496;2023-05-09T01:48:51;101438.25;;;3.17;62.80
54806;BME280;62866;55.776;37.496;2023-05-09T01:51:18;101420.34;;;3.08;63.16
54806;BME280;62866;55.776;37.496;2023-05-09T01:53:47;101433.16;;;3.14;62.89
54806;BME280;62866;55.776;37.496;2023-05-09T01:56:13;101434.94;;;3.13;63.22
54806;BME280;62866;55.776;37.496;2023-05-09T01:58:40;101434.19;;;3.11;63.04
54806;BME280;62866;55.776;37.496;2023-05-09T02:01:07;101429.56;;;3.15;63.40
54806;BME280;62866;55.776;37.496;2023-05-09T02:03:36;101413.97;;;3.10;63.86
54806;BME280;62866;55.776;37.496;2023-05-09T02:06:02;101435.19;;;3.23;64.40
54806;BME280;62866;55.776;37.496;2023-05-09T02:08:29;101423.84;;;3.21;63.40
54806;BME280;62866;55.776;37.496;2023-05-09T02:10:55;101430.56;;;3.26;63.67
54806;BME280;62866;55.776;37.496;2023-05-09T02:13:21;101443.25;;;3.34;63.26
54806;BME280;62866;55.776;37.496;2023-05-09T02:15:46;101430.91;;;3.34;63.10
54806;BME280;62866;55.776;37.496;2023-05-09T02:18:12;101439.44;;;3.38;62.94
54806;BME280;62866;55.776;37.496;2023-05-09T02:20:38;101433.22;;;3.39;63.47
54806;BME280;62866;55.776;37.496;2023-05-09T02:23:04;101439.69;;;3.48;63.38
54806;BME280;62866;55.776;37.496;2023-05-09T02:25:31;101433.34;;;3.50;63.47
54806;BME280;62866;55.776;37.496;2023-05-09T02:27:57;101436.31;;;3.58;63.57
54806;BME280;62866;55.776;37.496;2023-05-09T02:30:25;101446.59;;;3.63;63.38
54806;BME280;62866;55.776;37.496;2023-05-09T02:33:01;101441.09;;;3.66;63.79
54806;BME280;62866;55.776;37.496;2023-05-09T02:35:27;101436.31;;;3.71;63.01
54806;BME280;62866;55.776;37.496;2023-05-09T02:37:56;101442.59;;;3.83;63.53
54806;BME280;62866;55.776;37.496;2023-05-09T02:40:23;101432.97;;;3.81;63.30
54806;BME280;62866;55.776;37.496;2023-05-09T02:42:50;101449.06;;;3.91;63.16
54806;BME280;62866;55.776;37.496;2023-05-09T02:45:16;101434.56;;;3.84;63.07
54806;BME280;62866;55.776;37.496;2023-05-09T02:47:41;101440.78;;;3.96;63.07
54806;BME280;62866;55.776;37.496;2023-05-09T02:50:10;101433.59;;;3.98;62.86
54806;BME280;62866;55.776;37.496;2023-05-09T02:52:36;101442.50;;;4.09;62.85
54806;BME280;62866;55.776;37.496;2023-05-09T02:55:02;101448.31;;;4.14;63.36
54806;BME280;62866;55.776;37.496;2023-05-09T02:57:28;101437.81;;;4.13;62.60
54806;BME280;62866;55.776;37.496;2023-05-09T02:59:54;101453.72;;;4.26;63.45
54806;BME280;62866;55.776;37.496;2023-05-09T03:02:20;101455.16;;;4.30;63.13
54806;BME280;62866;55.776;37.496;2023-05-09T03:04:45;101436.97;;;4.25;63.29
54806;BME280;62866;55.776;37.496;2023-05-09T03:07:11;101454.63;;;4.37;63.44
54806;BME280;62866;55.776;37.496;2023-05-09T03:09:36;101450.94;;;4.40;63.42
54806;BME280;62866;55.776;37.496;2023-05-09T03:12:02;101447.31;;;4.41;63.60
54806;BME280;62866;55.776;37.496;2023-05-09T03:14:28;101458.22;;;4.49;63.66
54806;BME280;62866;55.776;37.496;2023-05-09T03:16:54;101453.88;;;4.48;63.90
54806;BME280;62866;55.776;37.496;2023-05-09T03:19:19;101425.75;;;4.34;64.56
54806;BME280;62866;55.776;37.496;2023-05-09T03:21:45;101451.97;;;4.50;64.26
54806;BME280;62866;55.776;37.496;2023-05-09T03:24:10;101461.91;;;4.59;64.16
54806;BME280;62866;55.776;37.496;2023-05-09T03:26:36;101456.63;;;4.59;64.06
54806;BME280;62866;55.776;37.496;2023-05-09T03:29:02;101465.72;;;4.68;63.67
54806;BME280;62866;55.776;37.496;2023-05-09T03:31:28;101460.81;;;4.74;63.87
54806;BME280;62866;55.776;37.496;2023-05-09T03:33:54;101467.56;;;4.78;63.27
54806;BME280;62866;55.776;37.496;2023-05-09T03:36:19;101468.81;;;4.85;63.34
54806;BME280;62866;55.776;37.496;2023-05-09T03:38:45;101464.16;;;4.89;62.85
54806;BME280;62866;55.776;37.496;2023-05-09T03:41:12;101467.19;;;4.95;63.39
54806;BME280;62866;55.776;37.496;2023-05-09T03:43:38;101471.22;;;5.01;63.72
54806;BME280;62866;55.776;37.496;2023-05-09T03:46:03;101472.22;;;5.11;63.70
54806;BME280;62866;55.776;37.496;2023-05-09T03:48:29;101472.50;;;5.19;63.02
54806;BME280;62866;55.776;37.496;2023-05-09T03:50:54;101464.13;;;5.25;62.25
54806;BME280;62866;55.776;37.496;2023-05-09T03:53:20;101457.63;;;5.29;62.26
54806;BME280;62866;55.776;37.496;2023-05-09T03:55:46;101476.13;;;5.42;61.78
54806;BME280;62866;55.776;37.496;2023-05-09T03:58:11;101468.19;;;5.53;61.58
54806;BME280;62866;55.776;37.496;2023-05-09T04:00:37;101470.25;;;5.61;60.55
54806;BME280;62866;55.776;37.496;2023-05-09T04:03:03;101450.63;;;5.63;60.35
54806;BME280;62866;55.776;37.496;2023-05-09T04:05:29;101439.06;;;5.64;59.87
54806;BME280;62866;55.776;37.496;2023-05-09T04:07:54;101452.63;;;5.84;59.66
54806;BME280;62866;55.776;37.496;2023-05-09T04:10:20;101465.59;;;5.99;59.89
54806;BME280;62866;55.776;37.496;2023-05-09T04:12:46;101473.22;;;6.15;59.66
54806;BME280;62866;55.776;37.496;2023-05-09T04:15:11;101464.53;;;6.24;59.38
54806;BME280;62866;55.776;37.496;2023-05-09T04:17:37;101461.38;;;6.30;59.39
54806;BME280;62866;55.776;37.496;2023-05-09T04:20:03;101453.19;;;6.33;59.45
54806;BME280;62866;55.776;37.496;2023-05-09T04:22:28;101467.31;;;6.56;58.40
54806;BME280;62866;55.776;37.496;2023-05-09T04:24:54;101465.22;;;6.71;58.16
54806;BME280;62866;55.776;37.496;2023-05-09T04:27:20;101470.03;;;6.88;57.21
54806;BME280;62866;55.776;37.496;2023-05-09T04:29:46;101470.38;;;7.06;56.63
54806;BME280;62866;55.776;37.496;2023-05-09T04:32:13;101476.38;;;7.19;56.74
54806;BME280;62866;55.776;37.496;2023-05-09T04:34:38;101467.03;;;7.36;55.73
54806;BME280;62866;55.776;37.496;2023-05-09T04:37:04;101475.16;;;7.55;55.97
54806;BME280;62866;55.776;37.496;2023-05-09T04:39:30;101474.44;;;7.74;55.31
54806;BME280;62866;55.776;37.496;2023-05-09T04:41:56;101478.09;;;7.93;54.77
54806;BME280;62866;55.776;37.496;2023-05-09T04:44:21;101479.50;;;8.18;54.07
54806;BME280;62866;55.776;37.496;2023-05-09T04:46:48;101478.69;;;8.48;53.46
54806;BME280;62866;55.776;37.496;2023-05-09T04:49:14;101470.91;;;8.66;53.57
54806;BME280;62866;55.776;37.496;2023-05-09T04:51:40;101478.31;;;8.93;52.05
54806;BME280;62866;55.776;37.496;2023-05-09T04:54:05;101454.88;;;9.16;50.84
54806;BME280;62866;55.776;37.496;2023-05-09T04:56:31;101469.66;;;9.68;50.42
54806;BME280;62866;55.776;37.496;2023-05-09T04:58:57;101468.59;;;10.07;49.27
54806;BME280;62866;55.776;37.496;2023-05-09T05:01:22;101465.84;;;10.46;48.86
54806;BME280;62866;55.776;37.496;2023-05-09T05:03:48;101459.59;;;10.82;48.53
54806;BME280;62866;55.776;37.496;2023-05-09T05:06:13;101468.06;;;11.23;46.47
54806;BME280;62866;55.776;37.496;2023-05-09T05:08:39;101479.19;;;11.28;46.99
54806;BME280;62866;55.776;37.496;2023-05-09T05:11:04;101472.47;;;11.59;45.66
54806;BME280;62866;55.776;37.496;2023-05-09T05:13:30;101468.69;;;11.70;45.31
54806;BME280;62866;55.776;37.496;2023-05-09T05:15:55;101468.03;;;11.86;44.98
54806;BME280;62866;55.776;37.496;2023-05-09T05:18:22;101465.50;;;12.10;45.32
54806;BME280;62866;55.776;37.496;2023-05-09T05:20:48;101459.84;;;12.13;43.88
54806;BME280;62866;55.776;37.496;2023-05-09T05:23:13;101466.19;;;12.12;43.53
54806;BME280;62866;55.776;37.496;2023-05-09T05:25:39;101466.59;;;12.51;42.65
54806;BME280;62866;55.776;37.496;2023-05-09T05:28:05;101474.09;;;12.81;42.15
54806;BME280;62866;55.776;37.496;2023-05-09T05:30:30;101464.19;;;12.82;42.08
54806;BME280;62866;55.776;37.496;2023-05-09T05:32:56;101462.06;;;12.93;41.98
54806;BME280;62866;55.776;37.496;2023-05-09T05:35:21;101457.69;;;12.92;41.21
54806;BME280;62866;55.776;37.496;2023-05-09T05:37:49;101465.78;;;13.01;41.62
54806;BME280;62866;55.776;37.496;2023-05-09T05:40:14;101464.69;;;13.19;40.46
54806;BME280;62866;55.776;37.496;2023-05-09T05:42:40;101446.75;;;13.44;39.89
54806;BME280;62866;55.776;37.496;2023-05-09T05:45:06;101451.13;;;13.37;40.18
54806;BME280;62866;55.776;37.496;2023-05-09T05:47:32;101465.03;;;13.41;38.78
54806;BME280;62866;55.776;37.496;2023-05-09T05:50:03;101467.88;;;13.31;37.77
54806;BME280;62866;55.776;37.496;2023-05-09T05:52:31;101450.91;;;13.22;37.24
54806;BME280;62866;55.776;37.496;2023-05-09T05:54:56;101458.78;;;13.16;36.32
54806;BME280;62866;55.776;37.496;2023-05-09T05:57:22;101453.78;;;13.21;36.71
54806;BME280;62866;55.776;37.496;2023-05-09T05:59:48;101458.81;;;13.24;36.71
54806;BME280;62866;55.776;37.496;2023-05-09T06:02:15;101451.25;;;13.19;36.28
54806;BME280;62866;55.776;37.496;2023-05-09T06:04:40;101454.72;;;13.12;36.04
54806;BME280;62866;55.776;37.496;2023-05-09T06:07:07;101450.72;;;13.16;36.30
54806;BME280;62866;55.776;37.496;2023-05-09T06:09:33;101447.19;;;13.15;36.44
54806;BME280;62866;55.776;37.496;2023-05-09T06:11:58;101450.09;;;13.30;35.85
54806;BME280;62866;55.776;37.496;2023-05-09T06:14:24;101448.75;;;13.42;35.47
54806;BME280;62866;55.776;37.496;2023-05-09T06:16:50;101444.75;;;13.62;35.42
54806;BME280;62866;55.776;37.496;2023-05-09T06:19:16;101440.53;;;13.84;35.34
54806;BME280;62866;55.776;37.496;2023-05-09T06:21:42;101441.44;;;14.40;34.83
54806;BME280;62866;55.776;37.496;2023-05-09T06:24:07;101433.31;;;14.95;34.18
54806;BME280;62866;55.776;37.496;2023-05-09T06:26:33;101433.81;;;15.67;33.41
54806;BME280;62866;55.776;37.496;2023-05-09T06:28:59;101435.75;;;16.84;31.31
54806;BME280;62866;55.776;37.496;2023-05-09T06:31:24;101420.97;;;17.37;30.89
54806;BME280;62866;55.776;37.496;2023-05-09T06:33:50;101434.81;;;17.06;31.65
54806;BME280;62866;55.776;37.496;2023-05-09T06:36:15;101418.00;;;16.60;32.13
54806;BME280;62866;55.776;37.496;2023-05-09T06:38:41;101424.72;;;16.20;32.75
54806;BME280;62866;55.776;37.496;2023-05-09T06:41:06;101422.00;;;16.06;33.01
54806;BME280;62866;55.776;37.496;2023-05-09T06:43:32;101409.66;;;15.51;32.57
54806;BME280;62866;55.776;37.496;2023-05-09T06:45:58;101420.03;;;15.16;33.58
54806;BME280;62866;55.776;37.496;2023-05-09T06:48:23;101405.44;;;15.11;33.37
54806;BME280;62866;55.776;37.496;2023-05-09T06:50:49;101413.13;;;14.91;32.73
54806;BME280;62866;55.776;37.496;2023-05-09T06:53:14;101408.09;;;14.88;33.28
54806;BME280;62866;55.776;37.496;2023-05-09T06:55:41;101410.56;;;14.98;32.99
54806;BME280;62866;55.776;37.496;2023-05-09T06:58:06;101407.16;;;15.04;31.24
54806;BME280;62866;55.776;37.496;2023-05-09T07:00:32;101399.38;;;15.09;30.88
54806;BME280;62866;55.776;37.496;2023-05-09T07:02:57;101395.38;;;15.05;30.15
54806;BME280;62866;55.776;37.496;2023-05-09T07:05:23;101403.56;;;14.89;29.85
54806;BME280;62866;55.776;37.496;2023-05-09T07:07:49;101397.00;;;14.83;29.77
54806;BME280;62866;55.776;37.496;2023-05-09T07:10:14;101400.03;;;14.88;30.59
54806;BME280;62866;55.776;37.496;2023-05-09T07:12:40;101385.75;;;14.79;30.53
54806;BME280;62866;55.776;37.496;2023-05-09T07:15:06;101400.59;;;14.75;30.53
54806;BME280;62866;55.776;37.496;2023-05-09T07:17:32;101386.63;;;14.33;31.08
54806;BME280;62866;55.776;37.496;2023-05-09T07:19:57;101395.78;;;14.07;32.16
54806;BME280;62866;55.776;37.496;2023-05-09T07:22:23;101384.19;;;13.99;32.39
54806;BME280;62866;55.776;37.496;2023-05-09T07:24:48;101380.97;;;14.59;31.59
54806;BME280;62866;55.776;37.496;2023-05-09T07:27:15;101393.34;;;16.19;29.76
54806;BME280;62866;55.776;37.496;2023-05-09T07:29:40;101392.59;;;16.40;29.84
54806;BME280;62866;55.776;37.496;2023-05-09T07:32:06;101390.16;;;16.45;29.79
54806;BME280;62866;55.776;37.496;2023-05-09T07:34:32;101381.88;;;16.47;29.61
54806;BME280;62866;55.776;37.496;2023-05-09T07:36:57;101382.44;;;16.57;29.86
54806;BME280;62866;55.776;37.496;2023-05-09T07:39:23;101381.25;;;16.95;30.07
54806;BME280;62866;55.776;37.496;2023-05-09T07:41:49;101373.56;;;17.41;29.63
54806;BME280;62866;55.776;37.496;2023-05-09T07:44:14;101379.38;;;17.17;29.09
54806;BME280;62866;55.776;37.496;2023-05-09T07:46:40;101354.41;;;16.43;29.94
54806;BME280;62866;55.776;37.496;2023-05-09T07:49:06;101381.91;;;16.03;29.86
54806;BME280;62866;55.776;37.496;2023-05-09T07:51:32;101372.34;;;15.40;30.55
54806;BME280;62866;55.776;37.496;2023-05-09T07:53:58;101371.19;;;15.80;30.08
54806;BME280;62866;55.776;37.496;2023-05-09T07:56:24;101372.31;;;15.48;30.70
54806;BME280;62866;55.776;37.496;2023-05-09T07:58:50;101367.69;;;15.34;30.81
54806;BME280;62866;55.776;37.496;2023-05-09T08:01:16;101338.50;;;15.00;31.29
54806;BME280;62866;55.776;37.496;2023-05-09T08:03:41;101360.13;;;15.52;30.64
54806;BME280;62866;55.776;37.496;2023-05-09T08:06:07;101351.00;;;16.20;30.29
54806;BME280;62866;55.776;37.496;2023-05-09T08:08:32;101352.25;;;17.04;29.18
54806;BME280;62866;55.776;37.496;2023-05-09T08:10:58;101343.06;;;18.44;28.66
54806;BME280;62866;55.776;37.496;2023-05-09T08:13:24;101340.38;;;20.55;25.92
54806;BME280;62866;55.776;37.496;2023-05-09T08:15:49;101329.13;;;22.62;24.04
54806;BME280;62866;55.776;37.496;2023-05-09T08:18:15;101336.72;;;24.36;22.95
54806;BME280;62866;55.776;37.496;2023-05-09T08:20:41;101332.00;;;25.17;22.78
54806;BME280;62866;55.776;37.496;2023-05-09T08:23:06;101331.13;;;26.22;21.97
54806;BME280;62866;55.776;37.496;2023-05-09T08:25:32;101324.97;;;27.02;21.69
54806;BME280;62866;55.776;37.496;2023-05-09T08:27:58;101320.47;;;27.91;20.87
54806;BME280;62866;55.776;37.496;2023-05-09T08:30:23;101326.00;;;26.25;21.37
54806;BME280;62866;55.776;37.496;2023-05-09T08:32:49;101327.50;;;24.26;22.32
54806;BME280;62866;55.776;37.496;2023-05-09T08:35:24;101315.91;;;22.29;23.40
54806;BME280;62866;55.776;37.496;2023-05-09T08:37:50;101321.09;;;20.63;24.79
54806;BME280;62866;55.776;37.496;2023-05-09T08:40:15;101327.03;;;19.69;24.75
54806;BME280;62866;55.776;37.496;2023-05-09T08:42:42;101318.84;;;18.90;25.29
54806;BME280;62866;55.776;37.496;2023-05-09T08:45:11;101317.53;;;18.19;26.33
54806;BME280;62866;55.776;37.496;2023-05-09T08:47:39;101302.78;;;17.59;26.57
54806;BME280;62866;55.776;37.496;2023-05-09T08:50:07;101308.88;;;17.12;26.84
54806;BME280;62866;55.776;37.496;2023-05-09T08:52:34;101316.53;;;16.87;26.86
54806;BME280;62866;55.776;37.496;2023-05-09T08:55:00;101309.53;;;16.57;27.36
54806;BME280;62866;55.776;37.496;2023-05-09T08:57:26;101293.59;;;16.11;27.59
54806;BME280;62866;55.776;37.496;2023-05-09T08:59:53;101310.44;;;15.84;28.13
54806;BME280;62866;55.776;37.496;2023-05-09T09:02:20;101312.66;;;15.66;28.72
54806;BME280;62866;55.776;37.496;2023-05-09T09:04:46;101302.69;;;15.51;28.17
54806;BME280;62866;55.776;37.496;2023-05-09T09:07:12;101300.81;;;15.37;28.50
54806;BME280;62866;55.776;37.496;2023-05-09T09:09:44;101305.19;;;15.38;27.65
54806;BME280;62866;55.776;37.496;2023-05-09T09:12:10;101294.75;;;15.35;27.88
54806;BME280;62866;55.776;37.496;2023-05-09T09:14:38;101287.84;;;16.86;27.12
54806;BME280;62866;55.776;37.496;2023-05-09T09:17:07;101292.94;;;16.96;26.99
54806;BME280;62866;55.776;37.496;2023-05-09T09:19:34;101287.44;;;16.68;26.79
54806;BME280;62866;55.776;37.496;2023-05-09T09:22:03;101255.84;;;16.32;26.71
54806;BME280;62866;55.776;37.496;2023-05-09T09:24:29;101282.44;;;16.14;25.97
54806;BME280;62866;55.776;37.496;2023-05-09T09:26:56;101278.28;;;15.68;27.10
54806;BME280;62866;55.776;37.496;2023-05-09T09:29:22;101273.53;;;15.70;26.43
54806;BME280;62866;55.776;37.496;2023-05-09T09:31:52;101270.84;;;15.70;26.12
54806;BME280;62866;55.776;37.496;2023-05-09T09:34:20;101270.16;;;15.53;26.12
54806;BME280;62866;55.776;37.496;2023-05-09T09:36:46;101271.59;;;15.64;26.13
54806;BME280;62866;55.776;37.496;2023-05-09T09:39:13;101271.31;;;15.73;26.61
54806;BME280;62866;55.776;37.496;2023-05-09T09:41:39;101261.53;;;15.87;26.81
54806;BME280;62866;55.776;37.496;2023-05-09T09:44:23;101261.84;;;16.28;26.67
54806;BME280;62866;55.776;37.496;2023-05-09T09:46:50;101261.09;;;16.70;26.02
54806;BME280;62866;55.776;37.496;2023-05-09T09:49:20;101255.16;;;17.02;25.99
54806;BME280;62866;55.776;37.496;2023-05-09T09:51:53;101261.00;;;16.85;24.76
54806;BME280;62866;55.776;37.496;2023-05-09T09:54:19;101253.69;;;16.43;24.53
54806;BME280;62866;55.776;37.496;2023-05-09T09:56:47;101254.16;;;16.46;24.90
54806;BME280;62866;55.776;37.496;2023-05-09T09:59:15;101250.16;;;16.42;25.41
54806;BME280;62866;55.776;37.496;2023-05-09T10:02:04;101246.63;;;16.78;25.45
54806;BME280;62866;55.776;37.496;2023-05-09T10:04:33;101261.97;;;16.56;25.16
54806;BME280;62866;55.776;37.496;2023-05-09T10:07:09;101251.94;;;16.14;25.88
54806;BME280;62866;55.776;37.496;2023-05-09T10:09:35;101250.06;;;15.41;27.02
54806;BME280;62866;55.776;37.496;2023-05-09T10:12:06;101249.03;;;15.27;28.31
54806;BME280;62866;55.776;37.496;2023-05-09T10:14:37;101254.50;;;15.19;27.90
54806;BME280;62866;55.776;37.496;2023-05-09T10:17:07;101247.91;;;15.22;28.02
54806;BME280;62866;55.776;37.496;2023-05-09T10:19:34;101251.22;;;15.24;27.78
54806;BME280;62866;55.776;37.496;2023-05-09T10:22:04;101249.03;;;15.27;28.10
54806;BME280;62866;55.776;37.496;2023-05-09T10:27:03;101243.22;;;15.15;28.29
54806;BME280;62866;55.776;37.496;2023-05-09T10:29:35;101233.69;;;15.13;27.91
54806;BME280;62866;55.776;37.496;2023-05-09T10:32:12;101239.34;;;15.18;27.87
54806;BME280;62866;55.776;37.496;2023-05-09T10:34:43;101231.81;;;15.13;28.26
54806;BME280;62866;55.776;37.496;2023-05-09T10:37:09;101242.38;;;15.15;29.41
54806;BME280;62866;55.776;37.496;2023-05-09T10:39:36;101236.38;;;15.13;28.79
54806;BME280;62866;55.776;37.496;2023-05-09T10:42:02;101224.19;;;15.17;28.79
54806;BME280;62866;55.776;37.496;2023-05-09T10:44:29;101234.16;;;15.31;28.42
54806;BME280;62866;55.776;37.496;2023-05-09T10:46:55;101237.81;;;15.53;28.36
54806;BME280;62866;55.776;37.496;2023-05-09T10:49:21;101227.88;;;15.53;28.04
54806;BME280;62866;55.776;37.496;2023-05-09T10:51:48;101223.41;;;15.75;27.46
54806;BME280;62866;55.776;37.496;2023-05-09T10:54:27;101222.44;;;16.12;27.21
54806;BME280;62866;55.776;37.496;2023-05-09T10:56:54;101212.56;;;16.41;27.49
54806;BME280;62866;55.776;37.496;2023-05-09T10:59:46;101210.66;;;16.77;27.52
54806;BME280;62866;55.776;37.496;2023-05-09T11:02:19;101203.41;;;16.78;26.05
54806;BME280;62866;55.776;37.496;2023-05-09T11:04:45;101186.72;;;16.53;26.03
54806;BME280;62866;55.776;37.496;2023-05-09T11:07:31;101202.94;;;16.74;26.52
54806;BME280;62866;55.776;37.496;2023-05-09T11:10:14;101194.88;;;17.02;26.78
54806;BME280;62866;55.776;37.496;2023-05-09T11:15:20;101171.25;;;16.61;25.65
54806;BME280;62866;55.776;37.496;2023-05-09T11:17:50;101175.03;;;16.46;25.52
54806;BME280;62866;55.776;37.496;2023-05-09T11:20:17;101173.38;;;16.23;25.85
54806;BME280;62866;55.776;37.496;2023-05-09T11:22:43;101182.97;;;15.75;25.88
54806;BME280;62866;55.776;37.496;2023-05-09T11:25:14;101179.34;;;15.39;26.40
54806;BME280;62866;55.776;37.496;2023-05-09T11:27:45;101132.09;;;14.99;26.57
54806;BME280;62866;55.776;37.496;2023-05-09T11:30:15;101173.75;;;14.96;27.01
54806;BME280;62866;55.776;37.496;2023-05-09T11:32:45;101165.69;;;14.73;27.27
54806;BME280;62866;55.776;37.496;2023-05-09T11:35:19;101155.06;;;14.34;28.01
54806;BME280;62866;55.776;37.496;2023-05-09T11:37:46;101172.50;;;14.16;28.57
54806;BME280;62866;55.776;37.496;2023-05-09T11:40:13;101172.13;;;13.96;28.80
54806;BME280;62866;55.776;37.496;2023-05-09T11:42:44;101147.28;;;13.63;28.39
54806;BME280;62866;55.776;37.496;2023-05-09T11:45:11;101162.72;;;13.61;28.71
54806;BME280;62866;55.776;37.496;2023-05-09T11:47:38;101159.56;;;13.49;28.78
54806;BME280;62866;55.776;37.496;2023-05-09T11:50:08;101168.34;;;13.43;29.44
54806;BME280;62866;55.776;37.496;2023-05-09T11:52:34;101158.53;;;13.58;29.55
54806;BME280;62866;55.776;37.496;2023-05-09T11:55:00;101144.63;;;13.55;29.34
54806;BME280;62866;55.776;37.496;2023-05-09T11:57:27;101160.03;;;13.61;29.85
54806;BME280;62866;55.776;37.496;2023-05-09T11:59:52;101147.66;;;13.83;28.91
54806;BME280;62866;55.776;37.496;2023-05-09T12:02:18;101113.09;;;14.02;29.49
54806;BME280;62866;55.776;37.496;2023-05-09T12:04:44;101126.34;;;14.27;28.57
54806;BME280;62866;55.776;37.496;2023-05-09T12:07:10;101133.91;;;14.54;28.47
54806;BME280;62866;55.776;37.496;2023-05-09T12:09:37;101131.81;;;14.79;28.21
54806;BME280;62866;55.776;37.496;2023-05-09T12:12:11;101138.34;;;14.99;28.15
54806;BME280;62866;55.776;37.496;2023-05-09T12:14:38;101134.09;;;15.19;27.92
54806;BME280;62866;55.776;37.496;2023-05-09T12:17:07;101129.34;;;15.36;27.46
54806;BME280;62866;55.776;37.496;2023-05-09T12:19:33;101122.66;;;15.62;26.85
54806;BME280;62866;55.776;37.496;2023-05-09T12:22:01;101117.88;;;15.78;26.86
54806;BME280;62866;55.776;37.496;2023-05-09T12:24:28;101111.34;;;15.87;26.31
54806;BME280;62866;55.776;37.496;2023-05-09T12:26:55;101118.09;;;15.98;26.67
54806;BME280;62866;55.776;37.496;2023-05-09T12:29:22;101108.44;;;16.10;26.88
54806;BME280;62866;55.776;37.496;2023-05-09T12:31:49;101110.84;;;16.20;27.06
54806;BME280;62866;55.776;37.496;2023-05-09T12:34:15;101103.31;;;16.37;27.01
54806;BME280;62866;55.776;37.496;2023-05-09T12:36:45;101101.22;;;16.60;26.46
54806;BME280;62866;55.776;37.496;2023-05-09T12:39:18;101087.72;;;16.60;26.20
54806;BME280;62866;55.776;37.496;2023-05-09T12:41:47;101092.16;;;16.67;26.62
54806;BME280;62866;55.776;37.496;2023-05-09T12:44:21;101085.53;;;16.70;26.68
54806;BME280;62866;55.776;37.496;2023-05-09T12:47:00;101087.91;;;16.58;25.89
54806;BME280;62866;55.776;37.496;2023-05-09T12:49:27;101055.97;;;15.91;26.31
54806;BME280;62866;55.776;37.496;2023-05-09T12:51:54;101076.03;;;16.04;26.72
54806;BME280;62866;55.776;37.496;2023-05-09T12:54:23;101076.06;;;16.10;26.45
54806;BME280;62866;55.776;37.496;2023-05-09T12:56:53;101078.47;;;16.20;26.16
54806;BME280;62866;55.776;37.496;2023-05-09T12:59:27;101080.13;;;16.21;26.07
54806;BME280;62866;55.776;37.496;2023-05-09T13:01:57;101082.97;;;16.13;26.40